createdAt,value
2018-12-04T03:25:14.611Z,93.98
2018-12-04T05:36:17.858Z,92.79
2018-12-04T05:39:35.721Z,93.04
2018-12-04T05:42:19.423Z,92.15
2018-12-04T05:45:01.650Z,92.24
2018-12-04T05:47:44.195Z,92.42
2018-12-04T05:50:26.954Z,92.43
2018-12-04T05:53:35.641Z,93.09
2018-12-04T05:56:19.291Z,92.54
2018-12-04T05:59:03.201Z,92.80
2018-12-04T06:01:45.135Z,92.68
2018-12-04T06:04:28.575Z,92.39
2018-12-04T06:07:14.652Z,93.31
2018-12-04T06:09:56.958Z,93.67
2018-12-04T06:12:41.077Z,94.11
2018-12-04T06:15:24.692Z,94.26
2018-12-04T06:18:07.329Z,94.37
2018-12-04T06:20:50.106Z,94.64
2018-12-04T06:23:33.443Z,94.53
2018-12-04T06:26:16.169Z,94.18
2018-12-04T06:28:58.903Z,94.67
2018-12-04T06:31:42.658Z,94.82
2018-12-04T06:34:39.134Z,94.20
2018-12-04T06:40:58.867Z,94.96
2018-12-04T06:43:41.675Z,94.97
2018-12-04T06:46:24.201Z,95.58
2018-12-04T06:49:06.929Z,95.93
2018-12-04T06:51:49.829Z,96.04
2018-12-04T06:54:33.207Z,95.56
2018-12-04T06:57:17.016Z,95.58
2018-12-04T06:59:59.340Z,95.13
2018-12-04T07:02:42.151Z,95.05
2018-12-04T07:05:25.186Z,95.35
2018-12-04T07:08:08.333Z,94.92
2018-12-04T07:10:51.577Z,94.42
2018-12-04T07:13:34.347Z,94.21
2018-12-04T07:16:17.824Z,93.95
2018-12-04T07:19:01.446Z,93.96
2018-12-04T07:21:43.772Z,93.96
2018-12-04T07:24:27.423Z,93.85
2018-12-04T07:27:09.565Z,93.84
2018-12-04T07:29:52.767Z,94.30
2018-12-04T07:32:38.926Z,94.36
2018-12-04T07:35:23.221Z,94.69
2018-12-04T07:38:05.285Z,93.77
2018-12-04T07:40:47.949Z,93.43
2018-12-04T07:43:32.500Z,93.36
2018-12-04T07:46:14.922Z,93.27
2018-12-04T07:48:57.487Z,93.94
2018-12-04T07:51:41.180Z,93.53
2018-12-04T07:54:23.321Z,93.92
2018-12-04T07:57:08.510Z,94.02
2018-12-04T07:59:52.192Z,93.51
2018-12-04T08:02:36.879Z,93.61
2018-12-04T08:05:20.175Z,93.28
2018-12-04T08:08:04.389Z,89.29
2018-12-04T08:10:48.000Z,85.66
2018-12-04T08:13:30.602Z,83.02
2018-12-04T08:16:13.346Z,83.45
2018-12-04T08:18:56.897Z,85.06
2018-12-04T08:21:39.840Z,86.92
2018-12-04T08:24:23.685Z,88.80
2018-12-04T08:27:05.960Z,89.18
2018-12-04T08:29:48.378Z,89.77
2018-12-04T08:32:30.857Z,89.16
2018-12-04T08:35:13.955Z,90.27
2018-12-04T08:37:56.279Z,90.21
2018-12-04T08:40:38.489Z,90.53
2018-12-04T08:43:22.561Z,91.11
2018-12-04T08:46:04.492Z,90.94
2018-12-04T08:48:47.510Z,91.35
2018-12-04T08:51:31.693Z,91.79
2018-12-04T08:54:14.445Z,91.69
2018-12-04T08:56:56.509Z,91.46
2018-12-04T08:59:38.946Z,90.86
2018-12-04T09:02:21.777Z,90.19
2018-12-04T09:05:05.898Z,90.58
2018-12-04T09:07:50.255Z,89.70
2018-12-04T09:10:32.687Z,90.54
2018-12-04T09:13:15.139Z,90.07
2018-12-04T09:15:58.485Z,89.76
2018-12-04T09:18:41.138Z,88.42
2018-12-04T09:21:24.467Z,88.15
2018-12-04T09:24:06.923Z,86.77
2018-12-04T09:26:50.024Z,86.67
2018-12-04T09:29:32.903Z,86.15
2018-12-04T09:32:15.272Z,86.24
2018-12-04T09:34:59.438Z,85.65
2018-12-04T09:37:43.188Z,86.92
2018-12-04T09:40:25.667Z,87.98
2018-12-04T09:43:08.725Z,86.38
2018-12-04T09:45:51.416Z,86.25
2018-12-04T09:48:37.062Z,85.95
2018-12-04T09:51:19.335Z,84.95
2018-12-04T09:54:01.812Z,82.97
2018-12-04T09:56:44.736Z,78.89
2018-12-04T09:59:26.639Z,80.10
2018-12-04T10:02:09.930Z,78.79
2018-12-04T10:04:54.006Z,79.13
2018-12-04T10:07:36.858Z,78.68
2018-12-04T10:10:21.154Z,77.67
2018-12-04T10:13:03.748Z,74.52
2018-12-04T10:15:46.133Z,74.21
2018-12-04T10:18:31.103Z,75.99
2018-12-04T10:21:14.982Z,75.46
2018-12-04T10:23:57.711Z,76.72
2018-12-04T10:26:41.804Z,75.62
2018-12-04T10:29:24.722Z,76.74
2018-12-04T10:32:06.977Z,76.23
2018-12-04T10:34:50.061Z,75.55
2018-12-04T10:37:32.600Z,72.32
2018-12-04T10:40:16.275Z,73.31
2018-12-04T10:42:58.206Z,72.93
2018-12-04T10:45:41.578Z,71.01
2018-12-04T10:48:25.011Z,74.50
2018-12-04T10:51:07.556Z,74.90
2018-12-04T10:53:50.382Z,75.85
2018-12-04T10:56:32.540Z,73.21
2018-12-04T10:59:15.588Z,75.52
2018-12-04T11:02:03.772Z,72.46
2018-12-04T11:04:45.869Z,74.70
2018-12-04T11:07:28.365Z,73.46
2018-12-04T11:10:12.205Z,73.27
2018-12-04T11:12:54.277Z,75.15
2018-12-04T11:15:38.064Z,75.29
2018-12-04T11:18:22.037Z,76.08
2018-12-04T11:21:05.606Z,74.90
2018-12-04T11:23:48.408Z,76.85
2018-12-04T11:26:30.726Z,76.39
2018-12-04T11:29:15.225Z,77.09
2018-12-04T11:31:57.589Z,76.69
2018-12-04T11:34:41.030Z,75.51
2018-12-04T11:37:23.841Z,76.27
2018-12-04T11:40:06.881Z,77.22
2018-12-04T11:42:51.101Z,77.63
2018-12-04T11:45:34.968Z,77.39
2018-12-04T11:48:18.213Z,77.51
2018-12-04T11:51:01.858Z,75.39
2018-12-04T11:53:44.885Z,76.79
2018-12-04T11:56:27.200Z,77.89
2018-12-04T11:59:10.740Z,78.25
2018-12-04T12:01:54.185Z,77.85
2018-12-04T12:04:37.158Z,76.80
2018-12-04T12:07:22.793Z,73.72
2018-12-04T12:10:05.988Z,72.97
2018-12-04T12:12:50.343Z,73.21
2018-12-04T12:15:34.860Z,72.22
2018-12-04T12:18:17.485Z,71.42
2018-12-04T12:21:01.382Z,72.05
2018-12-04T12:23:46.052Z,70.84
2018-12-04T12:26:29.568Z,68.22
2018-12-04T12:29:13.030Z,68.69
2018-12-04T12:31:57.746Z,68.64
2018-12-04T12:34:42.986Z,66.59
2018-12-04T12:37:27.469Z,68.43
2018-12-04T12:40:12.327Z,67.80
2018-12-04T12:42:55.645Z,66.43
2018-12-04T12:45:37.909Z,65.27
2018-12-04T12:48:21.052Z,66.68
2018-12-04T12:51:07.770Z,65.00
2018-12-04T12:53:51.906Z,67.61
2018-12-04T12:56:34.630Z,64.95
2018-12-04T12:59:17.758Z,64.61
2018-12-04T13:02:00.112Z,61.96
2018-12-04T13:04:43.247Z,64.96
2018-12-04T13:07:26.121Z,66.35
2018-12-04T13:10:11.273Z,68.23
2018-12-04T13:12:53.260Z,67.35
2018-12-04T13:15:37.402Z,63.69
2018-12-04T13:18:20.263Z,65.40
2018-12-04T13:21:02.884Z,62.51
2018-12-04T13:23:46.008Z,64.50
2018-12-04T13:26:27.881Z,63.31
2018-12-04T13:29:10.734Z,64.54
2018-12-04T13:31:55.213Z,65.44
2018-12-04T13:34:37.240Z,66.16
2018-12-04T13:37:20.732Z,65.30
2018-12-04T13:40:08.653Z,68.04
2018-12-04T13:42:49.026Z,68.57
2018-12-04T13:45:31.857Z,67.09
2018-12-04T13:48:15.742Z,63.55
2018-12-04T13:50:58.335Z,63.97
2018-12-04T13:53:41.690Z,68.93
2018-12-04T13:56:26.451Z,65.85
2018-12-04T13:59:10.677Z,64.49
2018-12-04T14:01:54.969Z,63.75
2018-12-04T14:04:38.933Z,65.07
2018-12-04T14:07:23.070Z,61.66
2018-12-04T14:10:07.182Z,64.68
2018-12-04T14:12:52.368Z,65.82
2018-12-04T14:15:35.525Z,64.61
2018-12-04T14:18:18.701Z,64.66
2018-12-04T14:21:01.788Z,66.41
2018-12-04T14:23:46.009Z,69.15
2018-12-04T14:26:29.357Z,70.61
2018-12-04T14:29:12.880Z,72.01
2018-12-04T14:31:55.593Z,71.83
2018-12-04T14:34:39.621Z,72.41
2018-12-04T14:37:23.075Z,73.32
2018-12-04T14:40:07.542Z,73.22
2018-12-04T14:42:52.937Z,73.38
2018-12-04T14:45:36.708Z,74.35
2018-12-04T14:48:21.516Z,74.98
2018-12-04T14:51:05.226Z,74.43
2018-12-04T14:53:51.578Z,74.77
2018-12-04T14:56:35.269Z,75.31
2018-12-04T14:59:19.419Z,75.60
2018-12-04T15:02:02.181Z,76.38
2018-12-04T15:04:46.820Z,76.77
2018-12-04T15:07:31.119Z,76.36
2018-12-04T15:10:14.308Z,76.49
2018-12-04T15:12:59.475Z,76.14
2018-12-04T15:15:41.721Z,76.51
2018-12-04T15:18:24.915Z,77.30
2018-12-04T15:21:08.769Z,77.16
2018-12-04T15:23:51.431Z,77.56
2018-12-04T15:26:34.234Z,77.76
2018-12-04T15:29:18.509Z,78.94
2018-12-04T15:32:01.863Z,80.11
2018-12-04T15:34:44.059Z,81.71
2018-12-04T15:37:27.810Z,81.54
2018-12-04T15:40:10.003Z,84.49
2018-12-04T15:42:52.280Z,84.20
2018-12-04T15:45:36.084Z,83.99
2018-12-04T15:48:20.230Z,86.40
2018-12-04T15:51:03.528Z,88.27
2018-12-04T15:53:46.678Z,87.40
2018-12-04T15:56:29.886Z,87.98
2018-12-04T15:59:12.410Z,88.69
2018-12-04T16:01:56.471Z,87.86
2018-12-04T16:04:38.428Z,88.22
2018-12-04T16:07:20.921Z,88.64
2018-12-04T16:10:05.506Z,88.52
2018-12-04T16:12:47.795Z,88.44
2018-12-04T16:15:30.545Z,88.77
2018-12-04T16:18:15.300Z,89.98
2018-12-04T16:20:57.753Z,91.49
2018-12-04T16:23:40.705Z,90.70
2018-12-04T16:26:24.273Z,89.96
2018-12-04T16:29:10.933Z,90.28
2018-12-04T16:31:53.903Z,90.33
2018-12-04T16:34:35.850Z,90.79
2018-12-04T16:37:19.277Z,90.34
2018-12-04T16:40:03.198Z,91.16
2018-12-04T16:42:46.018Z,91.15
2018-12-04T16:45:29.740Z,90.72
2018-12-04T16:48:12.533Z,92.27
2018-12-04T16:50:54.468Z,92.05
2018-12-04T16:53:38.759Z,92.20
2018-12-04T16:56:21.894Z,92.08
2018-12-04T16:59:03.894Z,91.89
2018-12-04T17:01:51.924Z,92.91
2018-12-04T17:04:33.909Z,93.97
2018-12-04T17:07:16.578Z,94.04
2018-12-04T17:10:01.143Z,94.42
2018-12-04T17:12:44.206Z,94.18
2018-12-04T17:15:27.588Z,93.63
2018-12-04T17:18:10.936Z,93.35
2018-12-04T17:20:53.653Z,93.60
2018-12-04T17:23:36.912Z,94.32
2018-12-04T17:26:19.426Z,95.42
2018-12-04T17:29:03.192Z,95.18
2018-12-04T17:31:45.745Z,95.41
2018-12-04T17:34:28.485Z,95.30
2018-12-04T17:37:12.709Z,95.17
2018-12-04T17:39:56.497Z,95.03
2018-12-04T17:42:40.687Z,94.54
2018-12-04T17:45:24.195Z,94.23
2018-12-04T17:48:09.808Z,94.02
2018-12-04T17:50:53.005Z,93.68
2018-12-04T17:53:35.357Z,93.99
2018-12-04T17:56:19.178Z,94.16
2018-12-04T17:59:03.237Z,94.42
2018-12-04T18:01:46.422Z,94.92
2018-12-04T18:04:29.287Z,95.87
2018-12-04T18:07:12.802Z,95.60
2018-12-04T18:09:55.703Z,95.82
2018-12-04T18:12:39.214Z,95.13
2018-12-04T18:15:22.293Z,95.14
2018-12-04T18:18:05.084Z,94.98
2018-12-04T18:20:48.620Z,94.92
2018-12-04T18:23:32.091Z,94.55
2018-12-04T18:26:15.372Z,94.79
2018-12-04T18:28:58.111Z,94.97
2018-12-04T18:31:41.036Z,95.10
2018-12-04T18:34:23.785Z,94.31
2018-12-04T18:37:07.152Z,94.40
2018-12-04T18:39:50.788Z,94.38
2018-12-04T18:42:34.342Z,94.16
2018-12-04T18:45:19.057Z,94.69
2018-12-04T18:48:02.316Z,95.36
2018-12-04T18:50:46.363Z,95.23
2018-12-04T18:53:30.021Z,95.55
2018-12-04T18:56:12.842Z,95.46
2018-12-04T18:58:56.337Z,95.32
2018-12-04T19:01:39.788Z,95.47
2018-12-04T19:04:23.403Z,95.59
2018-12-04T19:07:05.993Z,95.31
2018-12-04T19:09:49.072Z,95.61
2018-12-04T19:12:33.375Z,95.53
2018-12-04T19:15:15.851Z,95.34
2018-12-04T19:18:00.792Z,95.07
2018-12-04T19:20:44.288Z,95.02
2018-12-04T19:23:29.335Z,95.11
2018-12-04T19:26:14.486Z,95.37
2018-12-04T19:28:58.781Z,95.21
2018-12-04T19:31:42.898Z,95.31
2018-12-04T19:34:26.542Z,95.46
2018-12-04T19:37:09.641Z,94.96
2018-12-04T19:39:52.845Z,95.81
2018-12-04T19:42:37.252Z,95.92
2018-12-04T19:45:21.204Z,95.83
2018-12-04T19:48:04.768Z,95.61
2018-12-04T19:50:48.211Z,95.63
2018-12-04T19:53:31.723Z,95.40
2018-12-04T19:56:14.632Z,94.91
2018-12-04T19:59:00.316Z,95.80
2018-12-04T20:01:45.632Z,95.85
2018-12-04T20:04:31.111Z,95.82
2018-12-04T20:07:14.033Z,95.81
2018-12-04T20:09:56.708Z,95.41
2018-12-04T20:12:39.203Z,95.33
2018-12-04T20:15:22.674Z,95.33
2018-12-04T20:18:05.706Z,95.94
2018-12-04T20:20:48.133Z,95.74
2018-12-04T20:23:56.973Z,95.80
2018-12-04T20:26:40.483Z,95.88
2018-12-04T20:29:24.945Z,95.98
2018-12-04T20:32:08.659Z,96.07
2018-12-04T20:34:54.648Z,95.50
2018-12-04T20:37:37.510Z,95.43
2018-12-04T20:40:22.698Z,95.90
2018-12-04T20:43:06.730Z,96.14
2018-12-04T20:45:49.688Z,95.84
2018-12-04T20:48:32.385Z,95.76
2018-12-04T20:51:15.633Z,95.70
2018-12-04T20:53:58.368Z,95.64
2018-12-04T20:56:40.786Z,96.14
2018-12-04T20:59:23.931Z,96.08
2018-12-04T21:02:08.263Z,95.87
2018-12-04T21:04:50.980Z,95.65
2018-12-04T21:07:37.832Z,95.82
2018-12-04T21:10:22.867Z,95.65
2018-12-04T21:13:14.325Z,95.54
2018-12-04T21:15:53.714Z,96.41
2018-12-04T21:18:36.630Z,96.37
2018-12-04T21:21:19.549Z,96.64
2018-12-04T21:24:02.757Z,96.39
2018-12-04T21:26:47.078Z,97.00
2018-12-04T21:29:35.554Z,96.79
2018-12-04T21:32:24.850Z,96.97
2018-12-04T21:35:12.524Z,96.93
2018-12-04T21:38:03.362Z,97.12
2018-12-04T21:40:55.277Z,96.65
2018-12-04T21:43:43.336Z,97.15
2018-12-04T21:46:31.368Z,96.58
2018-12-04T21:49:14.139Z,96.26
2018-12-04T21:51:58.528Z,96.19
2018-12-04T21:54:40.823Z,96.18
2018-12-04T21:57:23.978Z,96.22
2018-12-04T22:00:08.334Z,95.93
2018-12-04T22:02:51.812Z,95.89
2018-12-04T22:05:34.563Z,96.45
2018-12-04T22:08:17.068Z,96.36
2018-12-04T22:10:59.721Z,96.28
2018-12-04T22:13:41.879Z,96.16
2018-12-04T22:16:24.110Z,96.10
2018-12-04T22:19:07.058Z,95.65
2018-12-04T22:21:51.328Z,95.88
2018-12-04T22:24:34.168Z,96.40
2018-12-04T22:27:17.721Z,96.01
2018-12-04T22:30:02.029Z,95.55
2018-12-04T22:32:44.615Z,95.50
2018-12-04T22:35:28.187Z,95.93
2018-12-04T22:38:11.087Z,96.11
2018-12-04T22:40:53.559Z,96.16
2018-12-04T22:43:36.028Z,96.48
2018-12-04T22:46:18.488Z,96.02
2018-12-04T22:49:00.894Z,96.28
2018-12-04T22:51:45.758Z,96.49
2018-12-04T22:54:28.782Z,96.60
2018-12-04T22:57:11.365Z,96.53
2018-12-04T22:59:54.045Z,96.64
2018-12-04T23:02:36.434Z,96.77
2018-12-04T23:05:19.570Z,96.15
2018-12-04T23:08:02.709Z,95.67
2018-12-04T23:10:46.076Z,95.84
2018-12-04T23:13:29.302Z,96.17
2018-12-04T23:16:13.274Z,96.03
2018-12-04T23:18:57.185Z,96.35
2018-12-04T23:21:39.964Z,96.72
2018-12-04T23:24:23.797Z,97.55
2018-12-04T23:27:05.837Z,97.21
2018-12-04T23:29:48.256Z,97.21
2018-12-04T23:32:31.092Z,97.25
2018-12-04T23:35:15.092Z,96.94
2018-12-04T23:37:57.853Z,96.93
2018-12-04T23:40:41.239Z,96.33
2018-12-04T23:43:23.719Z,96.62
2018-12-04T23:46:06.116Z,96.17
2018-12-04T23:48:50.986Z,96.41
2018-12-04T23:51:33.494Z,96.04
2018-12-04T23:54:15.316Z,96.00
2018-12-04T23:56:58.250Z,95.94
2018-12-04T23:59:40.266Z,96.14
